createdAt,value
2018-07-04T00:57:32.568Z,6.50
2018-07-04T01:00:12.310Z,6.83
2018-07-04T01:02:52.117Z,7.00
2018-07-04T01:05:32.012Z,6.80
2018-07-04T01:08:12.145Z,7.27
2018-07-04T01:10:51.728Z,6.40
2018-07-04T01:13:31.862Z,9.60
2018-07-04T01:16:11.389Z,6.77
2018-07-04T01:18:51.364Z,6.97
2018-07-04T01:21:30.848Z,6.73
2018-07-04T01:24:11.346Z,6.97
2018-07-04T01:26:51.008Z,6.67
2018-07-04T01:29:31.260Z,7.03
2018-07-04T01:32:10.908Z,7.03
2018-07-04T01:34:51.237Z,7.20
2018-07-04T01:37:30.781Z,6.90
2018-07-04T01:40:10.936Z,7.13
2018-07-04T01:42:50.544Z,7.20
2018-07-04T01:45:30.540Z,7.20
2018-07-04T01:48:10.002Z,6.83
2018-07-04T01:50:49.816Z,9.67
2018-07-04T01:53:29.344Z,7.13
2018-07-04T01:56:09.321Z,6.80
2018-07-04T01:58:49.158Z,7.17
2018-07-04T02:01:29.530Z,10.07
2018-07-04T02:04:09.107Z,7.50
2018-07-04T02:06:49.217Z,7.40
2018-07-04T02:09:28.824Z,7.43
2018-07-04T02:12:08.693Z,7.50
2018-07-04T02:14:48.511Z,7.83
2018-07-04T02:17:28.111Z,7.30
2018-07-04T02:20:08.092Z,10.30
2018-07-04T02:22:47.672Z,7.20
2018-07-04T02:25:27.940Z,8.10
2018-07-04T02:28:07.561Z,8.30
2018-07-04T02:30:41.604Z,7.93
2018-07-04T02:33:21.313Z,8.07
2018-07-04T02:36:01.918Z,8.27
2018-07-04T02:38:41.410Z,8.07
2018-07-04T02:41:21.389Z,7.40
2018-07-04T02:44:01.158Z,8.33
2018-07-04T02:46:41.517Z,8.67
2018-07-04T02:49:21.825Z,8.37
2018-07-04T02:52:02.154Z,8.07
2018-07-04T02:54:41.884Z,11.53
2018-07-04T02:57:21.816Z,8.93
2018-07-04T03:00:01.759Z,8.30
2018-07-04T03:02:41.267Z,7.83
2018-07-04T03:05:21.350Z,8.50
2018-07-04T03:08:01.132Z,8.47
2018-07-04T03:10:41.153Z,8.50
2018-07-04T03:13:20.849Z,8.30
2018-07-04T03:16:00.949Z,8.10
2018-07-04T03:18:40.558Z,10.33
2018-07-04T03:21:20.641Z,8.20
2018-07-04T03:24:00.189Z,7.70
2018-07-04T03:26:40.372Z,7.50
2018-07-04T03:29:19.973Z,7.80
2018-07-04T03:31:59.934Z,7.33
2018-07-04T03:34:39.639Z,10.20
2018-07-04T03:37:19.827Z,7.33
2018-07-04T03:39:59.309Z,7.50
2018-07-04T03:42:39.117Z,7.60
2018-07-04T03:45:18.727Z,8.13
2018-07-04T03:47:58.617Z,7.13
2018-07-04T03:50:38.162Z,7.13
2018-07-04T03:53:17.992Z,7.07
2018-07-04T03:55:57.469Z,9.03
2018-07-04T03:58:37.277Z,6.90
2018-07-04T04:01:16.861Z,6.63
2018-07-04T04:03:56.672Z,6.40
2018-07-04T04:06:36.532Z,6.93
2018-07-04T04:09:17.101Z,6.70
2018-07-04T04:11:56.641Z,8.87
2018-07-04T04:14:36.524Z,6.60
2018-07-04T04:17:16.258Z,6.90
2018-07-04T04:19:56.750Z,7.00
2018-07-04T04:22:36.328Z,6.87
2018-07-04T04:25:16.258Z,6.80
2018-07-04T04:27:55.846Z,6.47
2018-07-04T04:30:35.784Z,9.03
2018-07-04T04:33:15.560Z,6.63
2018-07-04T04:35:55.759Z,8.97
2018-07-04T04:38:36.657Z,6.20
2018-07-04T04:41:16.906Z,8.47
2018-07-04T04:43:56.915Z,6.60
2018-07-04T04:46:37.011Z,6.07
2018-07-04T04:49:16.740Z,6.17
2018-07-04T04:51:57.121Z,6.13
2018-07-04T04:54:36.661Z,5.70
2018-07-04T04:57:16.763Z,7.87
2018-07-04T04:59:56.973Z,5.33
2018-07-04T05:02:36.775Z,5.47
2018-07-04T05:05:16.676Z,5.03
2018-07-04T05:07:56.213Z,5.40
2018-07-04T05:10:36.764Z,5.30
2018-07-04T05:13:16.510Z,5.47
2018-07-04T05:15:56.738Z,5.37
2018-07-04T05:18:36.316Z,4.80
2018-07-04T05:21:16.462Z,5.10
2018-07-04T05:23:56.106Z,4.90
2018-07-04T05:26:38.911Z,5.10
2018-07-04T05:29:18.744Z,5.35
2018-07-04T05:31:58.698Z,5.03
2018-07-04T05:34:38.380Z,5.00
2018-07-04T05:37:18.605Z,5.03
2018-07-04T05:39:58.316Z,5.00
2018-07-04T05:42:38.388Z,4.60
2018-07-04T05:45:17.963Z,5.10
2018-07-04T05:47:58.093Z,4.60
2018-07-04T05:50:38.054Z,4.37
2018-07-04T05:53:18.671Z,4.80
2018-07-04T05:55:58.796Z,4.93
2018-07-04T05:58:38.716Z,4.60
2018-07-04T06:01:18.467Z,4.47
2018-07-04T06:03:58.766Z,4.23
2018-07-04T06:06:38.662Z,3.70
2018-07-04T06:09:18.578Z,3.73
2018-07-04T06:20:36.214Z,3.97
2018-07-04T06:23:15.777Z,3.83
2018-07-04T06:25:55.805Z,3.70
2018-07-04T06:28:36.351Z,3.63
2018-07-04T06:31:16.940Z,3.70
2018-07-04T06:33:56.593Z,3.97
2018-07-04T06:36:36.748Z,3.30
2018-07-04T06:39:04.709Z,3.40
2018-07-04T06:41:32.240Z,3.90
2018-07-04T06:43:59.629Z,3.60
2018-07-04T06:46:26.923Z,3.50
2018-07-04T06:48:54.542Z,3.60
2018-07-04T06:51:22.165Z,3.20
2018-07-04T06:53:49.494Z,3.27
2018-07-04T06:56:16.823Z,3.23
2018-07-04T06:58:45.490Z,3.20
2018-07-04T07:01:12.985Z,3.13
2018-07-04T07:03:53.213Z,3.10
2018-07-04T07:06:33.427Z,3.00
2018-07-04T07:09:13.784Z,3.23
2018-07-04T07:11:53.635Z,3.33
2018-07-04T07:14:33.669Z,3.17
2018-07-04T07:17:13.282Z,2.90
2018-07-04T07:19:53.653Z,3.47
2018-07-04T07:22:33.314Z,3.10
2018-07-04T07:25:14.170Z,2.87
2018-07-04T07:27:54.137Z,3.53
2018-07-04T07:30:34.747Z,2.90
2018-07-04T07:33:15.348Z,3.60
2018-07-04T07:35:55.545Z,3.50
2018-07-04T07:38:35.544Z,3.80
2018-07-04T07:41:15.140Z,3.83
2018-07-04T07:43:55.467Z,3.60
2018-07-04T07:46:35.554Z,3.60
2018-07-04T07:49:16.354Z,3.30
2018-07-04T07:51:56.595Z,3.60
2018-07-04T07:54:36.385Z,3.50
2018-07-04T07:57:16.376Z,3.70
2018-07-04T07:59:56.191Z,3.97
2018-07-04T08:02:36.910Z,3.10
2018-07-04T08:05:16.458Z,3.30
2018-07-04T08:07:57.422Z,3.67
2018-07-04T08:10:37.436Z,3.70
2018-07-04T08:13:17.721Z,3.80
2018-07-04T08:15:57.624Z,3.90
2018-07-04T08:18:38.439Z,3.67
2018-07-04T08:21:18.081Z,3.97
2018-07-04T08:23:59.249Z,3.83
2018-07-04T08:26:39.288Z,3.40
2018-07-04T08:29:21.025Z,3.30
2018-07-04T08:32:00.653Z,3.60
2018-07-04T08:34:40.606Z,3.30
2018-07-04T08:37:21.237Z,3.00
2018-07-04T08:40:01.436Z,3.05
2018-07-04T08:42:41.125Z,3.30
2018-07-04T08:45:21.209Z,3.35
2018-07-04T08:48:01.468Z,3.47
2018-07-04T08:50:41.662Z,3.45
2018-07-04T08:53:21.166Z,2.90
2018-07-04T08:56:01.881Z,3.45
2018-07-04T08:58:41.530Z,3.40
2018-07-04T09:01:21.473Z,3.33
2018-07-04T09:04:01.800Z,3.08
2018-07-04T09:06:41.582Z,3.47
2018-07-04T09:09:21.814Z,3.80
2018-07-04T09:12:01.614Z,3.40
2018-07-04T09:14:35.844Z,3.98
2018-07-04T09:17:15.969Z,3.02
2018-07-04T09:19:56.686Z,3.17
2018-07-04T09:22:37.769Z,3.25
2018-07-04T09:25:17.189Z,3.30
2018-07-04T09:27:58.106Z,3.30
2018-07-04T09:30:37.700Z,3.83
2018-07-04T09:33:18.159Z,3.62
2018-07-04T09:35:57.715Z,3.17
2018-07-04T09:38:37.761Z,3.98
2018-07-04T09:41:17.345Z,3.92
2018-07-04T09:43:57.859Z,3.33
2018-07-04T09:46:37.841Z,3.70
2018-07-04T09:49:17.978Z,3.55
2018-07-04T09:51:57.617Z,3.60
2018-07-04T09:54:37.556Z,4.08
2018-07-04T09:57:17.270Z,3.83
2018-07-04T09:59:57.758Z,3.80
2018-07-04T10:02:37.456Z,3.80
2018-07-04T10:05:17.559Z,3.70
2018-07-04T10:07:57.866Z,4.00
2018-07-04T10:10:37.497Z,3.87
2018-07-04T10:13:17.408Z,3.42
2018-07-04T10:15:57.343Z,3.62
2018-07-04T10:18:37.698Z,3.72
2018-07-04T10:21:17.227Z,3.70
2018-07-04T10:23:57.123Z,3.67
2018-07-04T10:26:36.572Z,3.87
2018-07-04T10:29:16.644Z,3.95
2018-07-04T10:31:56.141Z,3.70
2018-07-04T10:34:36.688Z,4.10
2018-07-04T10:37:16.658Z,4.10
2018-07-04T10:39:56.612Z,4.28
2018-07-04T10:42:36.560Z,3.52
2018-07-04T10:45:16.160Z,3.90
2018-07-04T10:47:56.948Z,3.80
2018-07-04T10:50:36.447Z,3.63
2018-07-04T10:53:16.740Z,4.17
2018-07-04T10:55:56.349Z,4.00
2018-07-04T10:58:36.964Z,4.00
2018-07-04T11:01:16.755Z,4.00
2018-07-04T11:03:56.695Z,3.87
2018-07-04T11:06:36.324Z,3.97
2018-07-04T11:09:17.103Z,3.87
2018-07-04T11:11:57.322Z,4.20
2018-07-04T11:14:37.569Z,4.20
2018-07-04T11:17:17.341Z,4.20
2018-07-04T11:19:57.520Z,4.57
2018-07-04T11:22:37.199Z,4.70
2018-07-04T11:25:17.464Z,5.27
2018-07-04T11:27:57.292Z,5.47
2018-07-04T11:30:38.383Z,5.67
2018-07-04T11:33:18.025Z,6.10
2018-07-04T11:35:58.393Z,6.10
2018-07-04T11:38:38.053Z,6.10
2018-07-04T11:41:19.742Z,6.37
2018-07-04T11:43:59.879Z,6.23
2018-07-04T11:46:28.409Z,6.53
2018-07-04T11:48:56.169Z,6.37
2018-07-04T11:51:23.480Z,5.80
2018-07-04T11:53:50.811Z,5.67
2018-07-04T11:56:18.498Z,6.13
2018-07-04T11:58:46.965Z,5.20
2018-07-04T12:01:14.871Z,5.30
2018-07-04T12:03:55.036Z,5.33
2018-07-04T12:06:34.635Z,4.90
2018-07-04T12:09:04.202Z,4.97
2018-07-04T12:11:32.075Z,5.33
2018-07-04T12:13:59.581Z,5.43
2018-07-04T12:16:27.032Z,4.50
2018-07-04T12:18:54.855Z,4.50
2018-07-04T12:21:22.162Z,4.83
2018-07-04T12:23:49.539Z,4.83
2018-07-04T12:26:16.832Z,4.57
2018-07-04T12:28:44.135Z,4.20
2018-07-04T12:31:11.442Z,3.90
2018-07-04T12:33:38.757Z,3.83
2018-07-04T12:36:06.061Z,4.30
2018-07-04T12:38:34.273Z,4.90
2018-07-04T12:41:01.746Z,3.77
2018-07-04T12:43:30.172Z,3.77
2018-07-04T12:45:57.452Z,3.53
2018-07-04T12:48:26.408Z,3.57
2018-07-04T12:50:54.280Z,3.33
2018-07-04T12:53:21.569Z,3.30
2018-07-04T12:56:02.113Z,3.67
2018-07-04T12:58:41.937Z,3.73
2018-07-04T13:01:21.711Z,3.40
2018-07-04T13:04:01.513Z,3.33
2018-07-04T13:06:42.327Z,3.40
2018-07-04T13:09:22.907Z,3.30
2018-07-04T13:12:03.374Z,3.43
2018-07-04T13:14:43.261Z,3.10
2018-07-04T13:17:24.173Z,3.40
2018-07-04T13:20:04.158Z,2.67
2018-07-04T13:22:44.886Z,2.70
2018-07-04T13:25:25.266Z,2.40
2018-07-04T13:28:05.011Z,3.00
2018-07-04T13:30:45.570Z,2.53
2018-07-04T13:33:25.510Z,2.80
2018-07-04T13:36:05.197Z,2.90
2018-07-04T13:38:45.944Z,3.07
2018-07-04T13:41:25.409Z,2.53
2018-07-04T13:44:05.291Z,2.83
2018-07-04T13:46:45.143Z,3.10
2018-07-04T13:49:19.566Z,3.03
2018-07-04T13:51:59.654Z,3.20
2018-07-04T13:54:39.295Z,3.20
2018-07-04T13:57:21.283Z,3.80
2018-07-04T14:00:01.136Z,3.53
2018-07-04T14:02:41.325Z,3.30
2018-07-04T14:05:21.156Z,3.50
2018-07-04T14:08:01.522Z,3.63
2018-07-04T14:10:41.669Z,3.67
2018-07-04T14:13:21.541Z,3.60
2018-07-04T14:16:01.232Z,3.57
2018-07-04T14:18:41.437Z,3.37
2018-07-04T14:21:21.164Z,3.30
2018-07-04T14:24:01.295Z,3.73
2018-07-04T14:26:41.121Z,3.77
2018-07-04T14:29:21.706Z,3.73
2018-07-04T14:32:01.659Z,3.77
2018-07-04T14:34:42.395Z,3.77
2018-07-04T14:37:21.994Z,3.70
2018-07-04T14:40:02.830Z,3.23
2018-07-04T14:42:42.752Z,3.57
2018-07-04T14:45:23.945Z,3.43
2018-07-04T14:48:04.899Z,3.13
2018-07-04T14:50:38.845Z,4.03
2018-07-04T14:53:19.496Z,4.73
2018-07-04T14:55:59.301Z,4.17
2018-07-04T14:58:40.321Z,3.70
2018-07-04T15:01:20.487Z,3.73
2018-07-04T15:04:00.142Z,3.40
2018-07-04T15:06:42.033Z,3.57
2018-07-04T15:09:22.888Z,3.50
2018-07-04T15:12:02.749Z,3.07
2018-07-04T15:14:42.436Z,3.17
2018-07-04T15:17:23.158Z,3.10
2018-07-04T15:20:04.234Z,3.50
2018-07-04T15:22:43.870Z,3.30
2018-07-04T15:25:23.823Z,3.40
2018-07-04T15:28:03.624Z,2.90
2018-07-04T15:30:44.428Z,3.13
2018-07-04T15:33:24.341Z,2.70
2018-07-04T15:36:05.575Z,3.00
2018-07-04T15:38:45.565Z,2.70
2018-07-04T15:41:26.384Z,2.90
2018-07-04T15:44:08.584Z,3.00
2018-07-04T15:46:50.556Z,2.57
2018-07-04T15:49:30.389Z,2.70
2018-07-04T15:55:03.034Z,2.53
2018-07-04T15:57:46.412Z,2.30
2018-07-04T16:00:27.449Z,2.53
2018-07-04T16:03:09.053Z,2.20
2018-07-04T16:05:50.154Z,2.27
2018-07-04T16:08:31.063Z,2.43
2018-07-04T16:11:13.214Z,2.30
2018-07-04T16:13:55.116Z,2.07
2018-07-04T16:16:35.538Z,2.97
2018-07-04T16:19:15.384Z,1.90
2018-07-04T16:21:55.537Z,2.10
2018-07-04T16:24:35.438Z,1.90
2018-07-04T16:27:16.365Z,1.80
2018-07-04T16:29:55.989Z,1.53
2018-07-04T16:32:36.071Z,1.60
2018-07-04T16:35:15.928Z,1.90
2018-07-04T16:37:57.266Z,1.80
2018-07-04T16:40:36.955Z,1.80
2018-07-04T16:43:17.551Z,2.03
2018-07-04T16:45:57.385Z,1.93
2018-07-04T16:48:38.401Z,2.10
2018-07-04T16:51:18.193Z,2.50
2018-07-04T16:53:58.106Z,2.20
2018-07-04T16:56:38.186Z,2.00
2018-07-04T16:59:19.025Z,2.13
2018-07-04T17:01:58.888Z,2.30
2018-07-04T17:04:39.654Z,1.93
2018-07-04T17:07:19.610Z,1.80
2018-07-04T17:09:59.829Z,2.07
2018-07-04T17:12:40.358Z,2.10
2018-07-04T17:15:20.769Z,2.00
2018-07-04T17:18:01.043Z,2.10
2018-07-04T17:20:46.094Z,2.20
2018-07-04T17:23:25.739Z,2.17
2018-07-04T17:26:05.825Z,2.30
2018-07-04T17:28:45.512Z,2.30
2018-07-04T17:31:25.896Z,2.00
2018-07-04T17:34:05.720Z,2.33
2018-07-04T17:36:46.419Z,1.80
2018-07-04T17:39:26.167Z,2.50
2018-07-04T17:42:06.924Z,2.53
2018-07-04T17:44:46.512Z,2.50
2018-07-04T17:47:27.282Z,2.10
2018-07-04T17:50:07.077Z,2.20
2018-07-04T17:52:48.073Z,2.20
2018-07-04T17:55:28.085Z,2.17
2018-07-04T17:58:08.974Z,2.40
2018-07-04T18:00:48.916Z,2.33
2018-07-04T18:03:29.541Z,2.20
2018-07-04T18:06:10.297Z,2.20
2018-07-04T18:08:50.994Z,2.33
2018-07-04T18:11:31.291Z,2.40
2018-07-04T18:14:11.051Z,2.20
2018-07-04T18:16:51.533Z,2.20
2018-07-04T18:19:31.841Z,2.33
2018-07-04T18:22:11.933Z,2.40
2018-07-04T18:24:51.672Z,2.70
2018-07-04T18:27:32.074Z,2.40
2018-07-04T18:30:12.013Z,2.53
2018-07-04T18:32:52.126Z,2.10
2018-07-04T18:35:32.163Z,2.30
2018-07-04T18:38:12.737Z,2.27
2018-07-04T18:40:52.532Z,3.30
2018-07-04T18:43:32.543Z,2.50
2018-07-04T18:46:12.146Z,2.50
2018-07-04T18:48:53.010Z,2.37
2018-07-04T18:51:32.855Z,2.47
2018-07-04T18:54:13.402Z,2.40
2018-07-04T18:56:53.272Z,2.47
2018-07-04T18:59:33.363Z,2.70
2018-07-04T19:02:13.191Z,2.77
2018-07-04T19:04:53.882Z,2.90
2018-07-04T19:07:33.994Z,3.20
2018-07-04T19:10:15.031Z,4.13
2018-07-04T19:12:54.817Z,3.47
2018-07-04T19:15:35.418Z,2.93
2018-07-04T19:18:15.136Z,3.23
2018-07-04T19:20:55.852Z,3.80
2018-07-04T19:23:35.919Z,3.23
2018-07-04T19:26:16.229Z,3.70
2018-07-04T19:28:56.239Z,3.33
2018-07-04T19:31:36.158Z,3.90
2018-07-04T19:34:15.845Z,3.83
2018-07-04T19:37:01.284Z,4.17
2018-07-04T19:39:41.644Z,4.10
2018-07-04T19:42:22.438Z,4.50
2018-07-04T19:45:02.024Z,15.90
2018-07-04T19:47:42.363Z,8.80
2018-07-04T19:50:22.125Z,8.60
2018-07-04T19:53:02.362Z,8.70
2018-07-04T19:55:42.774Z,4.67
2018-07-04T19:58:22.405Z,4.00
2018-07-04T20:01:02.664Z,4.20
2018-07-04T20:03:42.281Z,3.93
2018-07-04T20:06:16.561Z,4.00
2018-07-04T20:08:56.650Z,4.13
2018-07-04T20:11:37.226Z,4.70
2018-07-04T20:14:17.319Z,5.90
2018-07-04T20:16:57.025Z,4.23
2018-07-04T20:19:37.809Z,3.90
2018-07-04T20:22:17.633Z,4.07
2018-07-04T20:24:57.798Z,4.40
2018-07-04T20:27:37.966Z,4.07
2018-07-04T20:30:17.926Z,4.10
2018-07-04T20:32:57.542Z,3.97
2018-07-04T20:35:38.032Z,4.37
2018-07-04T20:38:17.823Z,4.53
2018-07-04T20:40:57.918Z,5.03
2018-07-04T20:43:37.788Z,5.00
2018-07-04T20:46:18.637Z,4.70
2018-07-04T20:48:58.401Z,4.93
2018-07-04T20:51:38.962Z,5.20
2018-07-04T20:54:19.072Z,5.10
2018-07-04T20:56:58.848Z,5.10
2018-07-04T20:59:39.242Z,5.63
2018-07-04T21:02:19.023Z,5.10
2018-07-04T21:04:58.894Z,5.93
2018-07-04T21:07:38.564Z,5.63
2018-07-04T21:10:18.589Z,8.10
2018-07-04T21:12:58.542Z,5.40
2018-07-04T21:15:40.264Z,5.50
2018-07-04T21:18:19.935Z,6.00
2018-07-04T21:21:00.751Z,5.13
2018-07-04T21:23:40.415Z,4.97
2018-07-04T21:26:20.432Z,5.10
2018-07-04T21:29:00.574Z,4.87
2018-07-04T21:31:41.557Z,5.10
2018-07-04T21:34:21.162Z,5.03
2018-07-04T21:37:01.862Z,4.83
2018-07-04T21:39:41.550Z,6.70
2018-07-04T21:42:22.677Z,4.70
2018-07-04T21:45:03.033Z,5.40
2018-07-04T21:47:43.904Z,4.93
2018-07-04T21:50:18.707Z,5.03
2018-07-04T21:52:58.332Z,5.03
